createdAt,value
2022-12-17T00:02:42.476Z,-0.30
2022-12-17T00:05:28.334Z,-0.20
2022-12-17T00:08:18.202Z,-0.30
2022-12-17T00:11:04.519Z,-0.30
2022-12-17T00:13:50.427Z,-0.30
2022-12-17T00:16:36.202Z,-0.30
2022-12-17T00:19:21.934Z,-0.30
2022-12-17T00:22:07.909Z,-0.30
2022-12-17T00:24:53.895Z,-0.30
2022-12-17T00:27:42.279Z,-0.30
2022-12-17T00:30:32.012Z,-0.30
2022-12-17T00:33:18.087Z,-0.30
2022-12-17T00:36:10.495Z,-0.30
2022-12-17T00:38:57.108Z,-0.40
2022-12-17T00:41:43.194Z,-0.30
2022-12-17T00:44:29.538Z,-0.30
2022-12-17T00:47:15.631Z,-0.30
2022-12-17T00:50:04.230Z,-0.30
2022-12-17T00:52:50.167Z,-0.30
2022-12-17T00:55:36.332Z,-0.30
2022-12-17T00:58:22.083Z,-0.30
2022-12-17T01:01:07.903Z,-0.40
2022-12-17T01:03:53.502Z,-0.40
2022-12-17T01:06:39.449Z,-0.50
2022-12-17T01:09:25.119Z,-0.40
2022-12-17T01:12:10.878Z,-0.40
2022-12-17T01:14:56.887Z,-0.40
2022-12-17T01:17:42.595Z,-0.30
2022-12-17T01:20:28.839Z,-0.30
2022-12-17T01:23:14.556Z,-0.30
2022-12-17T01:26:00.445Z,-0.30
2022-12-17T01:28:47.163Z,-0.30
2022-12-17T01:31:35.584Z,-0.30
2022-12-17T01:34:21.536Z,-0.40
2022-12-17T01:37:07.526Z,-0.40
2022-12-17T01:39:53.356Z,-0.40
2022-12-17T01:42:39.326Z,-0.30
2022-12-17T01:45:31.058Z,-0.50
2022-12-17T01:48:26.825Z,-0.50
2022-12-17T01:51:14.718Z,-0.40
2022-12-17T01:54:06.301Z,-0.40
2022-12-17T01:56:54.335Z,-0.40
2022-12-17T01:59:51.934Z,-0.40
2022-12-17T02:02:37.879Z,-0.50
2022-12-17T02:05:23.920Z,-0.50
2022-12-17T02:08:28.110Z,-0.50
2022-12-17T02:11:56.095Z,-0.50
2022-12-17T02:14:55.307Z,-0.50
2022-12-17T02:17:46.824Z,-0.50
2022-12-17T02:20:45.200Z,-0.50
2022-12-17T02:24:02.455Z,-0.50
2022-12-17T02:26:59.777Z,-0.50
2022-12-17T02:29:50.000Z,-0.50
2022-12-17T02:32:36.883Z,-0.60
2022-12-17T02:35:31.444Z,-0.60
2022-12-17T02:38:17.476Z,-0.60
2022-12-17T02:41:05.816Z,-0.60
2022-12-17T02:43:53.464Z,-0.50
2022-12-17T02:46:39.889Z,-0.60
2022-12-17T02:49:26.053Z,-0.50
2022-12-17T02:52:14.077Z,-0.60
2022-12-17T02:55:00.152Z,-0.70
2022-12-17T02:57:52.223Z,-0.80
2022-12-17T03:00:41.470Z,-0.80
2022-12-17T03:03:27.707Z,-0.70
2022-12-17T03:06:13.467Z,-0.80
2022-12-17T03:09:02.431Z,-0.90
2022-12-17T03:11:49.519Z,-0.90
2022-12-17T03:14:35.472Z,-0.90
2022-12-17T03:17:28.861Z,-0.80
2022-12-17T03:20:14.937Z,-0.80
2022-12-17T03:23:00.857Z,-0.80
2022-12-17T03:25:46.513Z,-0.80
2022-12-17T03:28:32.739Z,-0.80
2022-12-17T03:31:19.910Z,-0.80
2022-12-17T03:34:06.224Z,-0.80
2022-12-17T03:36:52.411Z,-0.80
2022-12-17T03:39:38.699Z,-0.80
2022-12-17T03:42:24.570Z,-0.80
2022-12-17T03:45:10.855Z,-0.80
2022-12-17T03:47:56.548Z,-0.90
2022-12-17T03:50:42.536Z,-0.90
2022-12-17T03:53:28.810Z,-0.90
2022-12-17T03:56:14.935Z,-0.90
2022-12-17T03:59:00.755Z,-1.00
2022-12-17T04:01:46.800Z,-0.90
2022-12-17T04:04:33.059Z,-0.90
2022-12-17T04:07:19.000Z,-0.90
2022-12-17T04:10:08.023Z,-1.00
2022-12-17T04:12:53.821Z,-0.90
2022-12-17T04:15:39.839Z,-1.00
2022-12-17T04:18:25.478Z,-1.00
2022-12-17T04:21:11.295Z,-1.00
2022-12-17T04:23:57.311Z,-0.90
2022-12-17T04:26:43.242Z,-0.90
2022-12-17T04:29:29.164Z,-0.90
2022-12-17T04:32:17.894Z,-0.90
2022-12-17T04:35:03.824Z,-0.90
2022-12-17T04:37:50.261Z,-1.00
2022-12-17T04:40:38.854Z,-1.00
2022-12-17T04:43:27.601Z,-1.00
2022-12-17T04:46:14.113Z,-0.90
2022-12-17T04:49:00.643Z,-0.90
2022-12-17T04:51:47.169Z,-0.90
2022-12-17T04:54:32.939Z,-0.80
2022-12-17T04:57:19.065Z,-0.80
2022-12-17T05:00:05.318Z,-0.80
2022-12-17T05:02:51.968Z,-0.90
2022-12-17T05:05:38.768Z,-0.90
2022-12-17T05:08:24.970Z,-0.80
2022-12-17T05:11:10.836Z,-0.80
2022-12-17T05:13:56.807Z,-0.80
2022-12-17T05:16:42.981Z,-0.80
2022-12-17T05:19:28.762Z,-0.70
2022-12-17T05:22:14.566Z,-0.70
2022-12-17T05:25:00.513Z,-0.70
2022-12-17T05:27:46.481Z,-0.70
2022-12-17T05:30:32.954Z,-0.70
2022-12-17T05:33:20.814Z,-0.70
2022-12-17T05:36:07.239Z,-0.80
2022-12-17T05:38:53.047Z,-0.80
2022-12-17T05:47:01.014Z,-0.80
2022-12-17T05:49:46.215Z,-0.80
2022-12-17T05:52:31.411Z,-0.80
2022-12-17T05:55:16.455Z,-0.80
2022-12-17T05:58:01.647Z,-0.80
2022-12-17T06:00:46.724Z,-0.80
2022-12-17T06:03:31.838Z,-0.80
2022-12-17T06:12:04.645Z,-0.90
2022-12-17T06:14:50.677Z,-0.90
2022-12-17T06:17:36.724Z,-0.90
2022-12-17T06:20:30.379Z,-0.90
2022-12-17T06:23:28.958Z,-0.90
2022-12-17T06:26:16.338Z,-0.90
2022-12-17T06:29:02.881Z,-1.00
2022-12-17T06:31:49.129Z,-0.90
2022-12-17T06:34:35.142Z,-0.90
2022-12-17T06:37:21.057Z,-0.90
2022-12-17T06:40:07.078Z,-0.90
2022-12-17T06:42:53.004Z,-0.90
2022-12-17T06:45:39.045Z,-0.90
2022-12-17T06:48:26.995Z,-0.90
2022-12-17T06:51:14.023Z,-0.90
2022-12-17T06:54:00.785Z,-0.80
2022-12-17T06:56:47.220Z,-0.80
2022-12-17T06:59:33.175Z,-0.80
2022-12-17T07:02:19.282Z,-0.80
2022-12-17T07:05:05.314Z,-0.80
2022-12-17T07:07:51.017Z,-0.90
2022-12-17T07:10:38.466Z,-0.90
2022-12-17T07:13:28.585Z,-0.90
2022-12-17T07:16:14.693Z,-0.90
2022-12-17T07:19:00.662Z,-0.90
2022-12-17T07:21:46.487Z,-0.90
2022-12-17T07:24:32.260Z,-1.00
2022-12-17T07:27:18.243Z,-0.90
2022-12-17T07:30:04.247Z,-1.00
2022-12-17T07:32:49.926Z,-1.00
2022-12-17T07:35:35.817Z,-1.00
2022-12-17T07:38:23.442Z,-1.10
2022-12-17T07:41:09.665Z,-1.10
2022-12-17T07:43:55.735Z,-1.10
2022-12-17T07:46:41.919Z,-1.10
2022-12-17T07:49:27.673Z,-1.10
2022-12-17T07:52:13.763Z,-1.10
2022-12-17T07:55:02.790Z,-1.10
2022-12-17T07:57:48.577Z,-1.20
2022-12-17T08:00:34.618Z,-1.20
2022-12-17T08:03:20.688Z,-1.20
2022-12-17T08:06:06.575Z,-1.20
2022-12-17T08:08:52.617Z,-1.20
2022-12-17T08:11:38.933Z,-1.20
2022-12-17T08:14:24.706Z,-1.20
2022-12-17T08:17:10.766Z,-1.20
2022-12-17T08:19:56.697Z,-1.10
2022-12-17T08:22:42.519Z,-1.10
2022-12-17T08:25:28.653Z,-1.10
2022-12-17T08:28:49.179Z,-1.10
2022-12-17T08:31:24.783Z,-1.10
2022-12-17T08:34:10.898Z,-1.10
2022-12-17T08:36:56.741Z,-1.10
2022-12-17T08:39:42.867Z,-1.10
2022-12-17T08:42:28.886Z,-1.00
2022-12-17T08:45:14.735Z,-1.00
2022-12-17T08:48:04.122Z,-0.90
2022-12-17T08:50:50.783Z,-0.90
2022-12-17T08:53:37.126Z,-0.90
2022-12-17T08:56:23.792Z,-0.80
2022-12-17T08:59:09.935Z,-0.90
2022-12-17T09:01:55.995Z,-0.80
2022-12-17T09:04:42.049Z,-0.70
2022-12-17T09:07:28.257Z,-0.70
2022-12-17T09:10:14.340Z,-0.70
2022-12-17T09:13:04.673Z,-0.70
2022-12-17T09:15:52.140Z,-0.70
2022-12-17T09:18:39.982Z,-0.70
2022-12-17T09:21:26.194Z,-0.70
2022-12-17T09:24:12.097Z,-0.70
2022-12-17T09:26:58.143Z,-0.60
2022-12-17T09:29:43.771Z,-0.50
2022-12-17T09:32:29.602Z,-0.50
2022-12-17T09:35:17.126Z,-0.50
2022-12-17T09:38:03.332Z,-0.60
2022-12-17T09:40:49.599Z,-0.60
2022-12-17T09:43:44.460Z,-0.60
2022-12-17T09:46:46.296Z,-0.60
2022-12-17T09:49:36.078Z,-0.50
2022-12-17T09:52:47.507Z,-0.60
2022-12-17T09:55:58.118Z,-0.50
2022-12-17T09:58:54.199Z,-0.60
2022-12-17T10:01:46.991Z,-0.50
2022-12-17T10:04:53.449Z,-0.50
2022-12-17T10:07:42.908Z,-0.50
2022-12-17T10:10:49.625Z,-0.60
2022-12-17T10:13:38.437Z,-0.60
2022-12-17T10:16:52.467Z,-0.70
2022-12-17T10:20:00.293Z,-0.70
2022-12-17T10:22:46.352Z,-0.80
2022-12-17T10:25:39.052Z,-0.90
2022-12-17T10:28:34.096Z,-0.70
2022-12-17T10:31:20.392Z,-0.80
2022-12-17T10:34:06.172Z,-0.80
2022-12-17T10:36:52.605Z,-0.80
2022-12-17T10:39:44.072Z,-0.90
2022-12-17T10:42:45.481Z,-0.90
2022-12-17T10:45:45.058Z,-0.90
2022-12-17T10:48:48.917Z,-0.90
2022-12-17T10:51:51.253Z,-0.90
2022-12-17T10:54:48.976Z,-0.80
2022-12-17T10:57:57.684Z,-0.80
2022-12-17T11:00:53.242Z,-0.60
2022-12-17T11:03:45.254Z,-0.60
2022-12-17T11:06:52.055Z,-0.70
2022-12-17T11:10:08.714Z,-0.60
2022-12-17T11:13:07.011Z,-0.90
2022-12-17T11:16:11.317Z,-0.80
2022-12-17T11:19:32.611Z,-0.70
2022-12-17T11:22:38.369Z,-0.90
2022-12-17T11:26:06.645Z,-0.80
2022-12-17T11:28:54.201Z,-0.80
2022-12-17T11:32:01.975Z,-0.90
2022-12-17T11:34:59.808Z,-1.00
2022-12-17T11:37:56.860Z,-0.80
2022-12-17T11:41:00.457Z,-0.80
2022-12-17T11:43:55.973Z,-0.80
2022-12-17T11:46:59.108Z,-0.80
2022-12-17T11:50:08.772Z,-0.90
2022-12-17T11:52:59.309Z,-0.70
2022-12-17T11:56:13.326Z,-0.80
2022-12-17T11:59:04.804Z,-0.80
2022-12-17T12:02:12.117Z,-0.90
2022-12-17T12:05:01.016Z,-1.00
2022-12-17T12:08:19.081Z,-0.90
2022-12-17T12:11:33.591Z,-0.80
2022-12-17T12:14:24.900Z,-0.90
2022-12-17T12:17:32.823Z,-0.90
2022-12-17T12:20:36.095Z,-0.90
2022-12-17T12:23:29.867Z,-0.90
2022-12-17T12:26:35.127Z,-0.90
2022-12-17T12:29:33.861Z,-1.10
2022-12-17T12:32:25.961Z,-1.10
2022-12-17T12:35:13.092Z,-1.10
2022-12-17T12:37:59.238Z,-1.20
2022-12-17T12:41:13.022Z,-1.10
2022-12-17T12:44:04.263Z,-1.20
2022-12-17T12:47:01.151Z,-1.10
2022-12-17T12:49:59.635Z,-1.10
2022-12-17T12:52:47.082Z,-1.20
2022-12-17T12:55:33.036Z,-1.40
2022-12-17T12:58:44.606Z,-1.20
2022-12-17T13:01:31.216Z,-1.20
2022-12-17T13:04:20.185Z,-1.40
2022-12-17T13:06:56.216Z,-1.30
2022-12-17T13:09:35.222Z,-1.30
2022-12-17T13:12:02.964Z,-1.30
2022-12-17T13:14:35.722Z,-1.30
2022-12-17T13:17:16.088Z,-1.20
2022-12-17T13:19:59.207Z,-1.30
2022-12-17T13:22:31.470Z,-1.30
2022-12-17T13:25:20.902Z,-1.40
2022-12-17T13:27:51.292Z,-1.40
2022-12-17T13:30:18.737Z,-1.30
2022-12-17T13:32:58.367Z,-1.20
2022-12-17T13:35:54.931Z,-1.20
2022-12-17T13:38:55.350Z,-1.30
2022-12-17T13:41:30.252Z,-1.40
2022-12-17T13:44:24.293Z,-1.60
2022-12-17T13:46:54.209Z,-1.70
2022-12-17T13:49:30.473Z,-1.80
2022-12-17T13:52:18.512Z,-1.80
2022-12-17T13:54:46.079Z,-1.80
2022-12-17T13:57:23.554Z,-1.80
2022-12-17T13:59:59.839Z,-1.90
2022-12-17T14:02:29.570Z,-1.90
2022-12-17T14:05:04.020Z,-1.90
2022-12-17T14:07:39.122Z,-1.90
2022-12-17T14:10:15.867Z,-1.90
2022-12-17T14:12:44.206Z,-2.00
2022-12-17T14:15:26.830Z,-2.00
2022-12-17T14:17:56.513Z,-2.10
2022-12-17T14:20:26.394Z,-2.10
2022-12-17T14:22:56.426Z,-2.20
2022-12-17T14:25:27.075Z,-2.20
2022-12-17T14:28:03.476Z,-2.20
2022-12-17T14:30:46.346Z,-2.20
2022-12-17T14:33:32.440Z,-2.20
2022-12-17T14:36:19.503Z,-2.20
2022-12-17T14:38:58.130Z,-2.20
2022-12-17T14:41:45.923Z,-2.20
2022-12-17T14:44:21.713Z,-2.30
2022-12-17T14:47:14.326Z,-2.30
2022-12-17T14:49:57.405Z,-2.30
2022-12-17T14:52:34.243Z,-2.30
2022-12-17T14:55:21.658Z,-2.30
2022-12-17T14:57:50.163Z,-2.40
2022-12-17T15:00:18.681Z,-2.50
2022-12-17T15:02:53.131Z,-2.60
2022-12-17T15:05:20.550Z,-2.60
2022-12-17T15:07:48.039Z,-2.70
2022-12-17T15:10:19.721Z,-2.70
2022-12-17T15:12:48.699Z,-2.70
2022-12-17T15:15:16.504Z,-2.80
2022-12-17T15:17:43.956Z,-2.70
2022-12-17T15:20:18.131Z,-2.70
2022-12-17T15:22:46.032Z,-2.70
2022-12-17T15:25:18.947Z,-2.80
2022-12-17T15:27:46.778Z,-2.80
2022-12-17T15:30:16.386Z,-2.90
2022-12-17T15:32:45.591Z,-3.00
2022-12-17T15:35:14.089Z,-3.00
2022-12-17T15:37:41.469Z,-2.90
2022-12-17T15:40:11.814Z,-2.90
2022-12-17T15:43:02.900Z,-3.00
2022-12-17T15:45:32.393Z,-3.00
2022-12-17T15:47:59.718Z,-3.00
2022-12-17T15:50:27.085Z,-3.10
2022-12-17T15:52:54.442Z,-3.10
2022-12-17T15:55:21.830Z,-3.20
2022-12-17T15:57:49.136Z,-3.20
2022-12-17T16:00:16.790Z,-3.40
2022-12-17T16:02:44.380Z,-3.50
2022-12-17T16:05:12.464Z,-3.70
2022-12-17T16:07:39.868Z,-3.90
2022-12-17T16:10:07.438Z,-4.10
2022-12-17T16:12:34.723Z,-4.30
2022-12-17T16:15:02.512Z,-4.40
2022-12-17T16:17:29.848Z,-4.60
2022-12-17T16:19:57.356Z,-4.70
2022-12-17T16:22:24.726Z,-4.90
2022-12-17T16:24:52.592Z,-5.00
2022-12-17T16:27:20.461Z,-5.20
2022-12-17T16:29:48.320Z,-5.20
2022-12-17T16:32:16.974Z,-5.30
2022-12-17T16:34:44.806Z,-5.40
2022-12-17T16:37:12.190Z,-5.40
2022-12-17T16:39:39.529Z,-5.40
2022-12-17T16:42:07.291Z,-5.50
2022-12-17T16:44:34.816Z,-5.50
2022-12-17T16:47:02.124Z,-5.60
2022-12-17T16:49:29.481Z,-5.70
2022-12-17T16:51:57.777Z,-5.90
2022-12-17T16:54:29.161Z,-6.00
2022-12-17T16:56:56.628Z,-6.00
2022-12-17T16:59:24.154Z,-5.90
2022-12-17T17:01:52.651Z,-5.90
2022-12-17T17:04:22.620Z,-5.90
2022-12-17T17:06:55.718Z,-5.90
2022-12-17T17:09:24.399Z,-6.00
2022-12-17T17:11:54.594Z,-6.00
2022-12-17T17:14:21.900Z,-6.00
2022-12-17T17:16:49.681Z,-6.00
2022-12-17T17:19:17.398Z,-6.00
2022-12-17T17:21:54.692Z,-6.10
2022-12-17T17:24:26.895Z,-6.20
2022-12-17T17:26:55.075Z,-6.30
2022-12-17T17:29:23.159Z,-6.30
2022-12-17T17:32:09.883Z,-6.30
2022-12-17T17:34:39.049Z,-6.40
2022-12-17T17:37:07.044Z,-6.40
2022-12-17T17:39:34.623Z,-6.50
2022-12-17T17:42:02.503Z,-6.50
2022-12-17T17:44:29.895Z,-6.40
2022-12-17T17:46:57.282Z,-6.40
2022-12-17T17:49:25.210Z,-6.40
2022-12-17T17:52:08.991Z,-6.30
2022-12-17T17:54:39.587Z,-6.30
2022-12-17T17:57:07.451Z,-6.20
2022-12-17T17:59:34.859Z,-6.10
2022-12-17T18:02:03.462Z,-6.30
2022-12-17T18:04:31.713Z,-6.20
2022-12-17T18:09:47.015Z,-6.00
2022-12-17T18:12:33.118Z,-6.00
2022-12-17T18:15:17.720Z,-5.90
2022-12-17T18:17:49.404Z,-6.00
2022-12-17T18:20:17.555Z,-6.20
2022-12-17T18:22:46.303Z,-6.20
2022-12-17T18:25:15.231Z,-6.30
2022-12-17T18:27:44.165Z,-6.30
2022-12-17T18:30:12.404Z,-6.30
2022-12-17T18:32:39.674Z,-6.40
2022-12-17T18:35:07.534Z,-6.40
2022-12-17T18:37:34.861Z,-6.60
2022-12-17T18:40:02.249Z,-6.60
2022-12-17T18:42:47.904Z,-6.70
2022-12-17T18:45:15.164Z,-6.80
2022-12-17T18:47:44.219Z,-6.80
2022-12-17T18:50:12.280Z,-6.80
2022-12-17T18:52:39.684Z,-6.90
2022-12-17T18:55:09.991Z,-7.00
2022-12-17T18:57:37.332Z,-7.00
2022-12-17T19:00:05.817Z,-7.00
2022-12-17T19:02:33.285Z,-7.10
2022-12-17T19:05:00.641Z,-7.10
2022-12-17T19:07:27.915Z,-7.10
2022-12-17T19:09:55.131Z,-7.10
2022-12-17T19:12:22.548Z,-7.20
2022-12-17T19:14:49.818Z,-7.10
2022-12-17T19:17:17.114Z,-7.20
2022-12-17T19:19:44.437Z,-7.10
2022-12-17T19:22:11.690Z,-7.10
2022-12-17T19:24:38.949Z,-6.90
2022-12-17T19:27:06.189Z,-6.80
2022-12-17T19:29:33.545Z,-6.80
2022-12-17T19:32:00.805Z,-6.70
2022-12-17T19:34:28.124Z,-6.80
2022-12-17T19:36:55.392Z,-6.70
2022-12-17T19:39:22.719Z,-6.50
2022-12-17T19:41:50.876Z,-6.40
2022-12-17T19:44:20.028Z,-6.30
2022-12-17T19:46:49.224Z,-6.30
2022-12-17T19:49:17.014Z,-6.30
2022-12-17T19:51:44.718Z,-6.10
2022-12-17T19:54:14.782Z,-6.10
2022-12-17T19:56:43.780Z,-6.00
2022-12-17T19:59:12.633Z,-5.80
2022-12-17T20:01:45.635Z,-5.90
2022-12-17T20:04:14.217Z,-5.80
2022-12-17T20:06:42.861Z,-5.90
2022-12-17T20:09:10.518Z,-5.90
2022-12-17T20:11:38.899Z,-5.90
2022-12-17T20:14:16.998Z,-6.00
2022-12-17T20:16:46.728Z,-5.90
2022-12-17T20:19:17.357Z,-6.10
2022-12-17T20:21:44.791Z,-5.90
2022-12-17T20:24:13.222Z,-5.90
2022-12-17T20:26:41.111Z,-5.80
2022-12-17T20:29:09.010Z,-5.70
2022-12-17T20:31:37.059Z,-5.70
2022-12-17T20:34:05.631Z,-5.70
2022-12-17T20:36:33.078Z,-5.60
2022-12-17T20:39:00.453Z,-5.60
2022-12-17T20:41:29.819Z,-5.70
2022-12-17T20:43:57.273Z,-5.70
2022-12-17T20:46:25.367Z,-5.70
2022-12-17T20:48:53.992Z,-5.60
2022-12-17T20:51:24.212Z,-5.60
2022-12-17T20:53:53.724Z,-5.60
2022-12-17T20:56:24.875Z,-5.60
2022-12-17T20:58:58.994Z,-5.60
2022-12-17T21:01:29.560Z,-5.50
2022-12-17T21:03:58.813Z,-5.50
2022-12-17T21:06:34.349Z,-5.30
2022-12-17T21:09:02.224Z,-5.40
2022-12-17T21:11:31.253Z,-5.30
2022-12-17T21:13:59.180Z,-5.40
2022-12-17T21:16:30.908Z,-5.40
2022-12-17T21:19:00.717Z,-5.30
2022-12-17T21:21:33.035Z,-5.30
2022-12-17T21:24:01.150Z,-5.30
2022-12-17T21:26:33.949Z,-5.30
2022-12-17T21:29:02.823Z,-5.30
2022-12-17T21:32:02.921Z,-5.30
2022-12-17T21:34:32.313Z,-5.40
2022-12-17T21:36:59.615Z,-5.30
2022-12-17T21:39:27.498Z,-5.30
2022-12-17T21:42:13.398Z,-5.10
2022-12-17T21:44:40.667Z,-5.10
2022-12-17T21:47:08.186Z,-5.10
2022-12-17T21:49:36.053Z,-5.20
2022-12-17T21:52:03.681Z,-5.30
2022-12-17T21:54:31.060Z,-5.30
2022-12-17T21:56:58.362Z,-5.50
2022-12-17T21:59:25.707Z,-5.50
2022-12-17T22:01:53.416Z,-5.50
2022-12-17T22:04:20.929Z,-5.40
2022-12-17T22:06:49.868Z,-5.30
2022-12-17T22:09:51.942Z,-5.30
2022-12-17T22:12:36.534Z,-5.30
2022-12-17T22:15:06.601Z,-5.30
2022-12-17T22:17:34.415Z,-5.30
2022-12-17T22:20:01.946Z,-5.30
2022-12-17T22:22:29.535Z,-5.30
2022-12-17T22:24:57.054Z,-5.30
2022-12-17T22:27:24.570Z,-5.40
2022-12-17T22:30:10.292Z,-5.30
2022-12-17T22:32:56.281Z,-5.30
2022-12-17T22:37:04.889Z,-5.20
2022-12-17T22:43:15.978Z,-5.00
2022-12-17T22:44:35.298Z,-4.80
2022-12-17T22:44:38.395Z,-4.70
2022-12-17T22:46:47.111Z,-4.80
2022-12-17T22:49:14.940Z,-4.80
2022-12-17T22:51:43.315Z,-4.80
2022-12-17T22:54:12.748Z,-4.90
2022-12-17T22:57:34.614Z,-5.00
2022-12-17T22:59:29.366Z,-4.90
2022-12-17T23:01:56.681Z,-4.90
2022-12-17T23:04:24.053Z,-4.90
2022-12-17T23:06:51.391Z,-5.00
2022-12-17T23:09:19.783Z,-5.00
2022-12-17T23:11:48.396Z,-5.10
2022-12-17T23:14:16.654Z,-5.10
2022-12-17T23:16:44.029Z,-5.10
2022-12-17T23:19:12.558Z,-5.20
2022-12-17T23:21:39.920Z,-5.20
2022-12-17T23:24:07.758Z,-5.40
2022-12-17T23:26:36.555Z,-5.40
2022-12-17T23:29:07.772Z,-5.40
2022-12-17T23:31:38.019Z,-5.40
2022-12-17T23:34:05.757Z,-5.50
2022-12-17T23:36:33.413Z,-5.60
2022-12-17T23:39:00.812Z,-5.60
2022-12-17T23:41:30.323Z,-5.60
2022-12-17T23:43:58.473Z,-5.60
2022-12-17T23:46:28.039Z,-5.60
2022-12-17T23:48:55.423Z,-5.60
2022-12-17T23:51:23.783Z,-5.60
2022-12-17T23:53:51.047Z,-5.80
2022-12-17T23:56:21.933Z,-5.80
2022-12-17T23:58:57.063Z,-5.80
